Time;durP1;ratioP1;P1;durP2;ratioP2;P2;SDS_P1;SDS_P2;PMS_P1;PMS_P2;Temp;Humidity;BMP_temperature;BMP_pressure;BME280_temperature;BME280_humidity;BME280_pressure;Samples;Min_cycle;Max_cycle;Signal;HPM_P1;HPM_P2
2023/10/09 00:02:11;;;;;;;11.30;4.38;;;15.50;78.30;;;;;;4980375;28;20456;-63
2023/10/09 00:04:41;;;;;;;12.90;4.65;;;15.50;78.50;;;;;;4979468;28;20517;-61
2023/10/09 00:07:08;;;;;;;12.95;4.15;;;15.50;78.50;;;;;;4985418;28;20038;-63
2023/10/09 00:09:50;;;;;;;12.77;4.47;;;15.40;78.50;;;;;;4986135;28;20048;-63
2023/10/09 00:12:23;;;;;;;9.50;4.60;;;15.40;78.40;;;;;;4985108;28;20453;-63
2023/10/09 00:14:55;;;;;;;11.85;4.30;;;15.40;78.60;;;;;;4984845;28;20109;-63
2023/10/09 00:17:23;;;;;;;11.18;4.53;;;15.40;78.80;;;;;;4982554;28;20177;-64
2023/10/09 00:19:51;;;;;;;14.00;5.07;;;15.30;78.70;;;;;;4983289;28;20038;-63
2023/10/09 00:22:25;;;;;;;9.15;4.15;;;15.30;78.90;;;;;;4987949;28;20041;-63
2023/10/09 00:25:10;;;;;;;9.05;4.22;;;15.30;78.90;;;;;;4982024;28;20577;-63
2023/10/09 00:27:42;;;;;;;11.98;4.28;;;15.20;78.90;;;;;;4983285;28;20125;-63
2023/10/09 00:30:21;;;;;;;10.55;4.38;;;15.20;78.70;;;;;;4983839;28;20034;-63
2023/10/09 00:33:00;;;;;;;13.10;4.85;;;15.20;78.90;;;;;;4985442;28;20160;-62
2023/10/09 00:35:36;;;;;;;11.38;4.55;;;15.20;78.90;;;;;;4982848;28;20046;-63
2023/10/09 00:38:15;;;;;;;12.43;4.57;;;15.20;78.90;;;;;;4985508;28;21073;-63
2023/10/09 00:40:47;;;;;;;11.75;4.20;;;15.20;79.10;;;;;;4983290;28;20410;-63
2023/10/09 00:43:13;;;;;;;12.10;4.30;;;15.10;79.00;;;;;;4985475;28;20053;-63
2023/10/09 00:45:40;;;;;;;9.38;4.13;;;15.10;79.10;;;;;;4984743;28;20454;-63
2023/10/09 00:48:09;;;;;;;12.48;4.50;;;15.10;79.20;;;;;;4985558;28;20092;-63
2023/10/09 00:50:36;;;;;;;13.82;4.40;;;15.10;79.30;;;;;;4985004;28;20042;-64
2023/10/09 00:53:09;;;;;;;10.13;4.32;;;15.00;79.30;;;;;;4982292;28;20518;-63
2023/10/09 00:55:55;;;;;;;11.38;4.32;;;15.00;79.20;;;;;;4985590;28;20038;-63
2023/10/09 00:58:24;;;;;;;10.18;4.35;;;15.00;79.10;;;;;;4984615;28;20081;-63
2023/10/09 01:00:52;;;;;;;12.18;5.22;;;15.00;79.10;;;;;;4981975;28;20093;-63
2023/10/09 01:03:20;;;;;;;13.55;4.78;;;15.00;79.10;;;;;;4981671;28;20042;-63
2023/10/09 01:06:14;;;;;;;13.00;4.90;;;14.90;79.20;;;;;;4985681;28;20481;-63
2023/10/09 01:11:23;;;;;;;11.43;4.90;;;14.80;79.50;;;;;;4979083;28;20267;-63
2023/10/09 01:16:17;;;;;;;11.65;4.63;;;14.70;80.30;;;;;;4981921;28;20050;-63
2023/10/09 01:18:49;;;;;;;12.73;4.80;;;14.70;80.90;;;;;;4982154;28;20604;-63
2023/10/09 01:21:23;;;;;;;12.45;5.05;;;14.70;81.00;;;;;;4982617;28;20034;-63
2023/10/09 01:24:07;;;;;;;10.63;4.70;;;14.70;81.10;;;;;;4987332;28;20043;-63
2023/10/09 01:26:47;;;;;;;11.73;4.18;;;14.60;81.10;;;;;;4986988;28;20043;-63
2023/10/09 01:29:20;;;;;;;14.65;4.75;;;14.60;81.20;;;;;;4987639;28;20380;-63
2023/10/09 01:31:56;;;;;;;12.80;4.97;;;14.70;82.40;;;;;;4986706;28;20090;-63
2023/10/09 01:37:11;;;;;;;13.40;4.70;;;14.70;82.00;;;;;;4987104;28;20277;-63
2023/10/09 01:39:42;;;;;;;8.55;4.63;;;14.70;81.70;;;;;;4987592;28;20415;-63
2023/10/09 01:42:09;;;;;;;16.38;4.63;;;14.70;81.90;;;;;;4986188;28;20378;-63
2023/10/09 01:44:35;;;;;;;12.23;4.80;;;14.70;82.20;;;;;;4979123;28;20140;-63
2023/10/09 01:47:07;;;;;;;13.65;4.93;;;14.70;82.50;;;;;;4978757;28;20449;-63
2023/10/09 01:49:41;;;;;;;10.38;4.72;;;14.70;82.70;;;;;;4979274;28;20034;-63
2023/10/09 01:52:09;;;;;;;15.65;4.90;;;14.70;82.90;;;;;;4978676;28;20034;-63
2023/10/09 01:54:38;;;;;;;14.43;4.68;;;14.70;82.70;;;;;;4983656;28;21918;-63
2023/10/09 01:57:15;;;;;;;12.95;5.07;;;14.70;83.10;;;;;;4984543;28;20026;-63
2023/10/09 01:59:45;;;;;;;13.75;4.78;;;14.70;83.10;;;;;;4983215;28;20505;-63
2023/10/09 02:03:02;;;;;;;12.10;4.82;;;14.70;82.90;;;;;;4980595;28;20089;-63
2023/10/09 02:07:40;;;;;;;14.68;5.18;;;14.70;83.90;;;;;;4984250;28;20065;-63
2023/10/09 02:10:21;;;;;;;11.15;4.95;;;14.70;82.90;;;;;;4981718;28;20042;-63
2023/10/09 02:12:53;;;;;;;12.07;4.75;;;14.70;83.10;;;;;;4981083;28;20034;-62
2023/10/09 02:15:40;;;;;;;15.27;4.50;;;14.60;83.10;;;;;;4983120;28;20991;-63
2023/10/09 02:18:16;;;;;;;14.13;4.90;;;14.60;83.30;;;;;;4981404;28;20046;-63
2023/10/09 02:20:46;;;;;;;13.85;4.47;;;14.60;83.20;;;;;;4982842;28;20035;-63
2023/10/09 02:23:17;;;;;;;13.45;4.88;;;14.60;83.20;;;;;;4980788;28;20304;-62
2023/10/09 02:25:45;;;;;;;11.40;4.93;;;14.60;83.30;;;;;;4986005;28;20045;-63
2023/10/09 02:28:20;;;;;;;15.70;4.80;;;14.60;83.50;;;;;;4985403;28;20152;-63
2023/10/09 02:30:47;;;;;;;11.77;4.30;;;14.70;83.70;;;;;;4984988;28;20579;-63
2023/10/09 02:33:30;;;;;;;14.95;4.50;;;14.70;83.70;;;;;;4985815;28;20490;-63
2023/10/09 02:35:59;;;;;;;11.85;4.28;;;14.70;83.90;;;;;;4985945;28;20686;-63
2023/10/09 02:38:26;;;;;;;10.68;4.32;;;14.80;84.00;;;;;;4985794;28;20088;-63
2023/10/09 02:43:44;;;;;;;21.00;4.85;;;14.80;84.20;;;;;;4986056;28;20556;-63
2023/10/09 02:46:32;;;;;;;16.00;4.60;;;14.90;84.50;;;;;;4985744;28;20041;-64
2023/10/09 02:49:03;;;;;;;12.40;3.85;;;14.90;84.10;;;;;;4984601;28;20096;-63
2023/10/09 02:51:33;;;;;;;13.88;3.97;;;15.00;84.00;;;;;;4986093;28;20035;-63
2023/10/09 02:54:26;;;;;;;11.73;3.97;;;15.00;83.80;;;;;;4985476;28;20561;-63
2023/10/09 02:57:05;;;;;;;12.75;4.35;;;15.00;83.80;;;;;;4985575;28;20629;-63
2023/10/09 02:59:31;;;;;;;11.20;3.97;;;15.00;83.80;;;;;;4986016;28;20406;-63
2023/10/09 03:01:59;;;;;;;12.75;4.68;;;15.00;83.80;;;;;;4984654;28;20520;-63
2023/10/09 03:04:30;;;;;;;9.15;3.65;;;15.00;84.00;;;;;;4985282;28;20498;-63
2023/10/09 03:06:57;;;;;;;12.75;4.15;;;15.00;83.90;;;;;;4985623;28;20046;-63
2023/10/09 03:09:34;;;;;;;12.45;4.03;;;15.00;83.80;;;;;;4985947;28;20034;-63
2023/10/09 03:12:03;;;;;;;10.95;4.07;;;15.00;84.70;;;;;;4985140;28;20038;-63
2023/10/09 03:14:43;;;;;;;12.15;4.07;;;15.00;83.80;;;;;;4985133;28;20034;-63
2023/10/09 03:17:12;;;;;;;8.77;4.13;;;15.00;83.60;;;;;;4984708;28;20042;-62
2023/10/09 03:19:38;;;;;;;14.93;4.53;;;15.00;83.30;;;;;;4985332;28;20270;-63
2023/10/09 03:22:11;;;;;;;14.07;4.35;;;15.00;83.30;;;;;;4985574;28;20033;-63
2023/10/09 03:24:37;;;;;;;13.90;4.70;;;15.00;83.30;;;;;;4984196;28;20274;-63
2023/10/09 03:27:03;;;;;;;14.93;4.13;;;15.00;83.30;;;;;;4982534;28;20049;-63
2023/10/09 03:29:29;;;;;;;16.00;4.40;;;14.90;83.30;;;;;;4982746;28;20058;-63
2023/10/09 03:32:00;;;;;;;9.05;4.43;;;14.90;83.40;;;;;;4982135;28;20031;-63
2023/10/09 03:34:25;;;;;;;13.40;4.50;;;14.90;83.60;;;;;;4986195;28;20066;-63
2023/10/09 03:37:03;;;;;;;11.95;4.70;;;14.90;83.80;;;;;;4986119;28;20124;-63
2023/10/09 03:39:39;;;;;;;16.48;4.70;;;14.90;84.00;;;;;;4985812;28;20031;-63
2023/10/09 03:42:11;;;;;;;8.65;4.38;;;14.90;84.00;;;;;;4988600;28;20088;-63
2023/10/09 03:44:41;;;;;;;11.30;4.47;;;14.80;84.00;;;;;;4989601;28;20038;-63
2023/10/09 03:47:09;;;;;;;14.02;4.18;;;14.80;84.10;;;;;;4989771;28;20035;-63
2023/10/09 03:49:39;;;;;;;11.95;4.63;;;14.80;84.30;;;;;;4989786;28;20125;-63
2023/10/09 03:52:06;;;;;;;11.43;4.50;;;14.90;84.50;;;;;;4989445;28;20041;-63
2023/10/09 03:54:34;;;;;;;11.73;4.30;;;14.90;84.50;;;;;;4988388;28;20498;-63
2023/10/09 03:57:01;;;;;;;11.15;4.28;;;14.90;84.50;;;;;;4989241;28;20038;-63
2023/10/09 03:59:30;;;;;;;12.10;4.40;;;14.90;84.80;;;;;;4988639;28;20117;-63
2023/10/09 04:01:58;;;;;;;17.50;3.88;;;14.90;84.80;;;;;;4988817;28;20053;-63
2023/10/09 04:04:24;;;;;;;12.40;4.32;;;14.90;84.80;;;;;;4988910;28;20184;-63
2023/10/09 04:06:51;;;;;;;13.23;4.40;;;14.90;84.60;;;;;;4988109;28;20466;-63
2023/10/09 04:15:01;;;;;;;11.95;4.35;;;15.00;84.50;;;;;;4988089;28;20061;-63
2023/10/09 04:17:33;;;;;;;9.07;3.58;;;15.00;84.40;;;;;;4989060;28;20046;-63
2023/10/09 04:22:50;;;;;;;21.73;8.33;;;15.00;84.40;;;;;;4987930;28;20027;-63
2023/10/09 04:25:41;;;;;;;47.25;15.77;;;15.10;84.40;;;;;;4988828;28;20293;-63
2023/10/09 04:28:18;;;;;;;68.22;23.20;;;15.10;84.80;;;;;;4988067;28;20059;-63
2023/10/09 04:30:53;;;;;;;64.30;23.20;;;15.20;84.50;;;;;;4986497;28;20405;-63
2023/10/09 04:36:22;;;;;;;41.90;16.02;;;15.20;84.50;;;;;;4988866;28;20038;-62
2023/10/09 04:38:55;;;;;;;28.02;10.55;;;15.30;84.80;;;;;;4986522;28;20039;-63
2023/10/09 04:41:33;;;;;;;15.30;7.15;;;15.40;84.80;;;;;;4988521;28;20100;-63
2023/10/09 04:46:44;;;;;;;16.55;4.70;;;15.40;84.60;;;;;;4988025;28;20065;-63
2023/10/09 04:49:27;;;;;;;14.20;4.30;;;15.50;84.50;;;;;;4988669;28;20057;-63
2023/10/09 04:52:09;;;;;;;13.88;3.70;;;15.50;84.60;;;;;;4987683;28;20502;-63
2023/10/09 04:55:02;;;;;;;14.57;3.88;;;15.60;84.40;;;;;;4988022;28;20056;-63
2023/10/09 04:57:26;;;;;;;11.27;3.70;;;15.60;84.30;;;;;;4988678;28;20038;-63
2023/10/09 04:59:51;;;;;;;11.32;3.63;;;15.70;84.30;;;;;;4988132;28;20031;-63
2023/10/09 05:02:20;;;;;;;14.65;3.67;;;15.70;84.10;;;;;;4988771;28;20089;-63
2023/10/09 05:04:51;;;;;;;19.08;3.78;;;15.80;84.00;;;;;;4987763;28;20042;-63
2023/10/09 05:07:22;;;;;;;16.95;3.83;;;15.80;83.90;;;;;;4988356;28;20038;-63
2023/10/09 05:09:55;;;;;;;11.60;3.72;;;15.90;83.80;;;;;;4988490;28;20039;-63
2023/10/09 05:12:26;;;;;;;14.65;3.55;;;15.90;83.70;;;;;;4987560;28;20490;-63
2023/10/09 05:15:13;;;;;;;18.08;3.90;;;15.90;83.50;;;;;;4987489;28;20042;-63
2023/10/09 05:17:39;;;;;;;16.60;3.58;;;16.00;83.40;;;;;;4987931;28;20572;-63
2023/10/09 05:23:14;;;;;;;13.77;3.47;;;16.00;83.10;;;;;;4987381;28;20121;-63
2023/10/09 05:25:55;;;;;;;11.73;3.50;;;16.10;82.90;;;;;;4987988;28;20506;-64
2023/10/09 05:28:25;;;;;;;11.70;3.50;;;16.10;82.70;;;;;;4987934;28;20030;-63
2023/10/09 05:31:02;;;;;;;11.50;3.28;;;16.10;82.40;;;;;;4986972;28;20049;-64
2023/10/09 05:33:29;;;;;;;10.50;3.42;;;16.10;82.30;;;;;;4985889;28;20030;-63
2023/10/09 05:38:46;;;;;;;14.47;3.57;;;16.20;82.00;;;;;;4985912;28;20049;-63
2023/10/09 05:41:31;;;;;;;11.48;3.35;;;16.20;81.90;;;;;;4984984;28;20042;-63
2023/10/09 05:47:04;;;;;;;11.38;3.28;;;16.20;81.70;;;;;;4985026;28;20097;-63
2023/10/09 05:49:45;;;;;;;8.57;3.20;;;16.20;81.60;;;;;;4985763;28;20037;-63
2023/10/09 05:52:42;;;;;;;12.13;4.18;;;16.20;81.50;;;;;;4985089;28;20033;-63
2023/10/09 06:06:01;;;;;;;14.77;5.25;;;16.20;81.50;;;;;;4984131;28;20518;-63
2023/10/09 06:14:03;;;;;;;14.43;4.45;;;16.20;81.90;;;;;;4983380;28;20088;-63
2023/10/09 06:16:41;;;;;;;11.68;3.90;;;16.20;81.90;;;;;;4983860;28;20045;-62
2023/10/09 06:24:33;;;;;;;15.85;3.80;;;16.20;82.30;;;;;;4984093;28;20409;-63
2023/10/09 06:29:38;;;;;;;11.32;3.50;;;16.20;82.40;;;;;;4985530;28;20039;-62
2023/10/09 06:35:14;;;;;;;9.73;3.78;;;16.30;82.70;;;;;;4986098;28;20045;-63
2023/10/09 06:38:21;;;;;;;14.98;4.35;;;16.30;82.60;;;;;;4986843;28;20561;-62
2023/10/09 06:43:15;;;;;;;14.00;3.65;;;16.40;82.60;;;;;;4986635;28;20030;-63
2023/10/09 06:45:54;;;;;;;11.05;3.88;;;16.40;82.80;;;;;;4986543;28;20088;-64
2023/10/09 06:59:03;;;;;;;15.07;3.75;;;16.70;82.80;;;;;;4986267;28;20037;-63
2023/10/09 07:01:42;;;;;;;13.50;3.65;;;16.70;82.70;;;;;;4986917;28;20037;-63
2023/10/09 07:04:45;;;;;;;13.07;3.58;;;16.80;82.80;;;;;;4986153;28;20141;-63
2023/10/09 07:07:13;;;;;;;16.08;4.13;;;16.90;82.70;;;;;;4986200;28;20450;-63
2023/10/09 07:12:26;;;;;;;18.77;3.75;;;17.00;82.60;;;;;;4985263;28;20513;-63
2023/10/09 07:20:13;;;;;;;15.68;3.80;;;17.20;82.80;;;;;;4990238;28;20138;-63
2023/10/09 07:22:52;;;;;;;17.98;4.18;;;17.30;82.90;;;;;;4989358;28;20037;-63
2023/10/09 07:25:40;;;;;;;13.43;3.45;;;17.30;82.90;;;;;;4990227;28;20129;-63
2023/10/09 07:28:28;;;;;;;14.73;3.58;;;17.40;82.60;;;;;;4990518;28;20042;-63
2023/10/09 07:30:57;;;;;;;13.07;3.42;;;17.50;82.30;;;;;;4989858;28;20516;-63
2023/10/09 07:33:30;;;;;;;13.82;3.90;;;17.50;81.90;;;;;;4989585;28;20077;-63
2023/10/09 07:35:59;;;;;;;15.05;3.95;;;17.60;81.90;;;;;;4989774;28;20528;-63
2023/10/09 07:38:35;;;;;;;12.10;3.60;;;17.70;81.80;;;;;;4989944;28;20038;-63
2023/10/09 07:43:35;;;;;;;17.25;3.85;;;17.80;81.60;;;;;;4989830;28;20040;-63
2023/10/09 07:48:38;;;;;;;11.98;3.60;;;17.80;81.00;;;;;;4989422;28;20041;-63
2023/10/09 07:51:11;;;;;;;15.77;3.78;;;17.90;81.10;;;;;;4990255;28;20035;-64
2023/10/09 07:53:43;;;;;;;18.20;4.32;;;18.00;80.80;;;;;;4989695;28;20034;-64
2023/10/09 07:56:09;;;;;;;13.32;4.20;;;18.00;80.70;;;;;;4989391;28;20533;-63
2023/10/09 07:58:45;;;;;;;17.05;4.40;;;18.00;80.50;;;;;;4989316;28;20138;-63
2023/10/09 08:01:16;;;;;;;13.52;4.15;;;18.10;80.50;;;;;;4987277;28;20037;-63
2023/10/09 08:03:46;;;;;;;13.57;4.07;;;18.10;80.60;;;;;;4987622;28;20521;-63
2023/10/09 08:14:59;;;;;;;14.45;4.03;;;18.30;80.50;;;;;;4988028;28;20042;-63
2023/10/09 08:17:15;;;;;;;11.82;3.63;;;18.30;80.30;;;;;;4981938;28;20046;-63
2023/10/09 08:19:56;;;;;;;16.88;4.32;;;18.40;80.30;;;;;;4988122;28;20038;-63
2023/10/09 08:22:52;;;;;;;16.90;3.97;;;18.50;80.30;;;;;;4987788;28;20526;-63
2023/10/09 08:25:31;;;;;;;18.50;4.60;;;18.50;80.20;;;;;;4987162;28;20034;-63
2023/10/09 08:28:39;;;;;;;15.68;4.05;;;18.50;80.00;;;;;;4984599;28;20324;-63
2023/10/09 08:36:01;;;;;;;13.30;3.90;;;18.60;79.30;;;;;;4990036;28;20039;-63
2023/10/09 08:38:33;;;;;;;12.43;3.60;;;18.70;79.20;;;;;;4989459;28;20030;-64
2023/10/09 08:41:17;;;;;;;14.65;3.90;;;18.70;80.00;;;;;;4990474;28;20050;-62
2023/10/09 08:43:53;;;;;;;8.75;3.90;;;18.80;78.80;;;;;;4988753;28;20030;-63
2023/10/09 08:46:28;;;;;;;16.70;3.85;;;18.80;78.60;;;;;;4990097;28;20596;-63
2023/10/09 08:48:59;;;;;;;13.07;3.65;;;18.80;78.40;;;;;;4989120;28;20038;-63
2023/10/09 08:51:26;;;;;;;15.00;3.65;;;18.90;78.70;;;;;;4990217;28;20045;-63
2023/10/09 08:53:52;;;;;;;15.45;4.20;;;19.00;78.60;;;;;;4989238;28;20125;-63
2023/10/09 08:56:22;;;;;;;15.07;3.42;;;19.00;78.50;;;;;;4990326;28;20494;-64
2023/10/09 08:58:52;;;;;;;13.05;4.10;;;19.10;78.40;;;;;;4988962;28;20046;-63
2023/10/09 09:01:21;;;;;;;16.27;3.80;;;19.10;78.00;;;;;;4990172;28;20038;-64
2023/10/09 09:03:50;;;;;;;16.02;3.70;;;19.20;78.00;;;;;;4989045;28;20081;-64
2023/10/09 09:06:19;;;;;;;13.95;3.85;;;19.30;78.00;;;;;;4990141;28;20490;-63
2023/10/09 09:08:45;;;;;;;12.98;3.45;;;19.30;77.90;;;;;;4988544;28;20054;-63
2023/10/09 09:11:22;;;;;;;13.52;4.10;;;19.40;77.70;;;;;;4989018;28;20030;-63
2023/10/09 09:14:11;;;;;;;12.23;3.83;;;19.40;77.20;;;;;;4989082;28;20046;-63
2023/10/09 09:16:44;;;;;;;15.95;4.18;;;19.50;76.60;;;;;;4989148;28;20512;-63
2023/10/09 09:21:56;;;;;;;16.08;3.72;;;19.50;76.60;;;;;;4989451;28;20421;-63
2023/10/09 09:24:26;;;;;;;10.93;3.03;;;19.60;76.50;;;;;;4989478;28;20029;-63
2023/10/09 09:26:59;;;;;;;13.95;3.60;;;19.60;76.80;;;;;;4988998;28;20037;-63
2023/10/09 09:29:55;;;;;;;14.95;3.70;;;19.60;76.50;;;;;;4988447;28;20031;-63
2023/10/09 09:32:35;;;;;;;;;;;19.70;76.00;;;;;;4987664;28;20049;-64
2023/10/09 09:35:04;;;;;;;10.40;3.67;;;19.80;76.60;;;;;;4986621;28;20008;-63
2023/10/09 09:37:34;;;;;;;16.73;3.60;;;19.90;76.30;;;;;;4986911;28;20096;-63
2023/10/09 09:40:01;;;;;;;17.00;3.88;;;19.90;76.20;;;;;;4985584;28;20521;-64
2023/10/09 09:42:32;;;;;;;10.00;3.90;;;20.00;76.00;;;;;;4985625;28;20030;-63
2023/10/09 09:45:02;;;;;;;15.00;3.47;;;20.00;75.70;;;;;;4986360;28;20042;-63
2023/10/09 09:47:27;;;;;;;12.77;3.70;;;20.10;75.30;;;;;;4986764;28;20030;-63
2023/10/09 09:50:00;;;;;;;17.27;4.25;;;20.20;75.30;;;;;;4986374;28;20044;-64
2023/10/09 09:52:28;;;;;;;12.75;3.53;;;20.20;74.60;;;;;;4986040;28;20046;-64
2023/10/09 09:54:54;;;;;;;17.05;3.60;;;20.30;74.60;;;;;;4987180;28;20034;-64
2023/10/09 09:57:26;;;;;;;21.00;4.00;;;20.30;74.30;;;;;;4986514;28;20039;-63
2023/10/09 09:59:54;;;;;;;17.92;3.53;;;20.40;74.20;;;;;;4985930;28;20041;-63
2023/10/09 10:02:47;;;;;;;18.10;3.58;;;20.50;74.00;;;;;;4986262;28;20116;-63
2023/10/09 10:05:16;;;;;;;19.20;3.45;;;20.50;73.30;;;;;;4983139;28;20038;-63
2023/10/09 10:07:49;;;;;;;20.63;3.80;;;20.60;73.60;;;;;;4986243;28;20248;-63
2023/10/09 10:10:55;;;;;;;19.50;4.28;;;20.60;73.10;;;;;;4986200;28;20035;-63
2023/10/09 10:13:40;;;;;;;14.30;3.50;;;20.70;72.40;;;;;;4974462;28;20314;-64
2023/10/09 10:16:19;;;;;;;14.90;3.30;;;20.80;72.10;;;;;;4986491;28;20042;-62
2023/10/09 10:21:40;;;;;;;15.77;3.67;;;20.90;72.00;;;;;;4980439;28;20627;-63
2023/10/09 10:24:31;;;;;;;19.23;3.60;;;20.90;72.40;;;;;;4987667;28;20100;-63
2023/10/09 10:27:27;;;;;;;15.57;3.22;;;20.90;72.00;;;;;;4987740;28;20034;-64
2023/10/09 10:30:11;;;;;;;17.73;3.90;;;21.00;71.80;;;;;;4987781;28;20069;-63
2023/10/09 10:32:51;;;;;;;14.00;4.22;;;21.00;72.00;;;;;;4987234;28;20049;-64
2023/10/09 10:35:20;;;;;;;9.18;3.15;;;21.10;71.80;;;;;;4988323;28;20510;-63
2023/10/09 10:38:01;;;;;;;17.13;3.38;;;21.10;72.20;;;;;;4987725;28;20045;-64
2023/10/09 10:40:45;;;;;;;10.20;3.30;;;21.10;72.10;;;;;;4987718;28;20573;-64
2023/10/09 10:43:47;;;;;;;18.13;3.55;;;21.10;72.10;;;;;;4988254;28;20065;-64
2023/10/09 10:46:15;;;;;;;12.82;3.85;;;21.20;71.90;;;;;;4988315;28;20544;-64
2023/10/09 10:48:47;;;;;;;16.17;3.78;;;21.30;72.10;;;;;;4986892;28;20035;-63
2023/10/09 10:51:21;;;;;;;19.75;3.45;;;21.30;72.30;;;;;;4987666;28;20577;-63
2023/10/09 10:53:56;;;;;;;12.48;3.50;;;21.40;72.20;;;;;;4987060;28;20045;-64
2023/10/09 10:56:34;;;;;;;16.33;3.55;;;21.40;72.30;;;;;;4988244;28;20091;-64
2023/10/09 11:05:14;;;;;;;20.33;3.58;;;21.60;71.90;;;;;;4987218;28;20041;-63
2023/10/09 11:07:27;;;;;;;17.45;3.72;;;21.70;72.10;;;;;;4979721;28;20030;-64
2023/10/09 11:12:42;;;;;;;15.55;3.40;;;21.80;71.70;;;;;;4983778;28;20026;-63
2023/10/09 11:18:06;;;;;;;17.95;3.58;;;22.00;71.40;;;;;;4987523;28;20516;-64
2023/10/09 11:20:34;;;;;;;14.10;3.42;;;22.10;71.30;;;;;;4987218;28;20414;-64
2023/10/09 11:25:52;;;;;;;14.98;4.03;;;22.20;71.00;;;;;;4988200;28;20548;-64
2023/10/09 11:31:11;;;;;;;18.50;4.22;;;22.30;70.10;;;;;;4987218;28;20117;-64
2023/10/09 11:33:53;;;;;;;14.15;3.28;;;22.40;70.10;;;;;;4984301;28;20065;-64
2023/10/09 11:36:31;;;;;;;11.25;3.30;;;22.40;69.30;;;;;;4983449;28;20031;-64
2023/10/09 11:39:50;;;;;;;12.00;3.78;;;22.50;69.90;;;;;;4984409;28;20121;-64
2023/10/09 11:41:49;;;;;;;16.98;3.60;;;22.50;69.80;;;;;;4981962;28;20077;-63
2023/10/09 11:44:23;;;;;;;14.73;3.60;;;22.50;69.60;;;;;;4984481;28;20081;-63
2023/10/09 11:47:22;;;;;;;15.40;3.58;;;22.50;69.50;;;;;;4984585;28;20483;-64
2023/10/09 11:49:57;;;;;;;;;;;22.60;69.00;;;;;;4984405;28;20054;-64
2023/10/09 11:52:35;;;;;;;17.13;3.72;;;22.70;69.90;;;;;;4984194;28;20040;-64
2023/10/09 11:55:02;;;;;;;12.90;3.25;;;22.70;69.60;;;;;;4985040;28;20181;-64
2023/10/09 11:57:31;;;;;;;17.00;3.80;;;22.70;69.10;;;;;;4984920;28;20026;-64
2023/10/09 12:00:03;;;;;;;12.93;3.60;;;22.70;68.90;;;;;;4985178;28;20030;-64
2023/10/09 12:02:31;;;;;;;11.90;3.50;;;22.70;68.70;;;;;;4985204;28;20057;-64
2023/10/09 12:04:56;;;;;;;11.38;3.42;;;22.70;68.60;;;;;;4987445;28;20512;-64
2023/10/09 12:07:25;;;;;;;15.77;3.47;;;22.70;68.90;;;;;;4988992;28;20518;-64
2023/10/09 12:09:56;;;;;;;13.70;3.75;;;22.80;68.80;;;;;;4987777;28;20035;-64
2023/10/09 12:12:25;;;;;;;10.88;3.30;;;22.80;68.80;;;;;;4986418;28;20177;-64
2023/10/09 12:14:52;;;;;;;11.63;3.80;;;22.80;68.70;;;;;;4987397;28;20148;-64
2023/10/09 12:17:18;;;;;;;10.27;3.42;;;22.80;69.50;;;;;;4988275;28;20069;-64
2023/10/09 12:19:44;;;;;;;12.13;3.55;;;22.80;68.90;;;;;;4987725;28;20054;-64
2023/10/09 12:22:10;;;;;;;20.83;4.18;;;22.80;68.80;;;;;;4984330;28;20508;-64
2023/10/09 12:24:37;;;;;;;14.52;3.80;;;22.80;68.90;;;;;;4987502;28;20030;-64
2023/10/09 12:27:04;;;;;;;15.27;3.80;;;22.80;68.80;;;;;;4987814;28;20030;-64
2023/10/09 12:29:35;;;;;;;20.58;3.78;;;22.90;68.90;;;;;;4987035;28;20089;-64
2023/10/09 12:32:02;;;;;;;16.10;3.55;;;22.90;68.70;;;;;;4987509;28;20030;-64
2023/10/09 12:34:28;;;;;;;13.70;4.03;;;23.00;68.80;;;;;;4987883;28;20118;-64
2023/10/09 12:36:54;;;;;;;13.18;3.28;;;23.00;68.50;;;;;;4987601;28;20129;-64
2023/10/09 12:39:21;;;;;;;13.60;3.35;;;23.10;68.30;;;;;;4988113;28;20038;-64
2023/10/09 12:41:53;;;;;;;15.35;3.92;;;23.20;68.30;;;;;;4986099;28;20307;-64
2023/10/09 12:44:22;;;;;;;13.50;3.90;;;23.20;68.30;;;;;;4987741;28;20062;-64
2023/10/09 12:46:54;;;;;;;18.40;4.00;;;23.30;68.30;;;;;;4987566;28;20613;-64
2023/10/09 12:49:26;;;;;;;19.80;3.95;;;23.30;68.10;;;;;;4987486;28;20038;-64
2023/10/09 12:51:53;;;;;;;10.90;3.08;;;23.30;67.90;;;;;;4986436;28;20038;-64
2023/10/09 12:54:20;;;;;;;13.70;3.97;;;23.30;67.90;;;;;;4988180;28;20049;-64
2023/10/09 12:56:48;;;;;;;13.15;3.53;;;23.30;67.80;;;;;;4986343;28;20405;-64
2023/10/09 12:59:14;;;;;;;16.42;4.00;;;23.30;67.80;;;;;;4988053;28;20034;-64
2023/10/09 13:01:43;;;;;;;13.68;3.55;;;23.30;67.70;;;;;;4986861;28;20049;-64
2023/10/09 13:04:17;;;;;;;15.57;3.97;;;23.30;67.90;;;;;;4985907;28;20070;-64
2023/10/09 13:06:46;;;;;;;15.82;3.30;;;23.20;67.70;;;;;;4986529;28;20134;-64
2023/10/09 13:09:14;;;;;;;16.42;3.50;;;23.20;68.10;;;;;;4989384;28;20687;-64
2023/10/09 13:11:40;;;;;;;13.80;3.35;;;23.20;68.10;;;;;;4988216;28;20030;-64
2023/10/09 13:14:21;;;;;;;15.13;4.20;;;23.30;68.30;;;;;;4988551;28;20066;-64
2023/10/09 13:16:50;;;;;;;21.30;3.80;;;23.20;68.10;;;;;;4987661;28;20050;-64
2023/10/09 13:19:17;;;;;;;15.77;4.25;;;23.20;68.10;;;;;;4987531;28;20161;-64
2023/10/09 13:21:43;;;;;;;13.50;3.85;;;23.20;68.30;;;;;;4987845;28;20042;-64
2023/10/09 13:24:24;;;;;;;14.55;3.92;;;23.20;68.50;;;;;;4986935;28;20038;-64
2023/10/09 13:26:52;;;;;;;12.32;3.72;;;23.10;68.80;;;;;;4986436;28;20060;-64
2023/10/09 13:29:22;;;;;;;15.02;3.60;;;23.10;69.10;;;;;;4987188;28;20046;-64
2023/10/09 13:31:49;;;;;;;10.55;3.15;;;23.00;69.20;;;;;;4986203;28;20038;-64
2023/10/09 13:34:17;;;;;;;10.90;3.80;;;23.00;69.20;;;;;;4986958;28;20545;-64
2023/10/09 13:36:52;;;;;;;12.50;3.25;;;22.90;69.20;;;;;;4984675;28;20053;-64
2023/10/09 13:39:24;;;;;;;14.80;3.90;;;22.90;69.30;;;;;;4987826;28;20034;-64
2023/10/09 13:42:14;;;;;;;13.27;3.55;;;22.90;69.50;;;;;;4987263;28;20081;-64
2023/10/09 13:44:41;;;;;;;10.23;3.50;;;22.80;69.50;;;;;;4985512;28;20038;-64
2023/10/09 13:47:11;;;;;;;11.32;3.67;;;22.80;69.70;;;;;;4988736;28;20030;-64
2023/10/09 13:49:40;;;;;;;12.25;3.35;;;22.80;70.00;;;;;;4989235;28;20486;-64
2023/10/09 13:52:07;;;;;;;10.65;3.00;;;22.80;69.90;;;;;;4988758;28;20046;-64
2023/10/09 13:56:59;;;;;;;17.77;3.78;;;22.80;69.40;;;;;;4988169;28;20096;-64
2023/10/09 13:59:25;;;;;;;18.67;3.58;;;22.80;69.20;;;;;;4989200;28;20041;-64
2023/10/09 14:01:54;;;;;;;16.35;3.38;;;22.80;69.00;;;;;;4988387;28;20475;-64
2023/10/09 14:04:22;;;;;;;10.52;3.13;;;22.80;68.70;;;;;;4988749;28;20034;-64
2023/10/09 14:06:51;;;;;;;19.20;3.58;;;22.80;68.80;;;;;;4987793;28;20046;-64
2023/10/09 14:09:37;;;;;;;18.90;3.30;;;22.80;68.90;;;;;;4988312;28;20515;-64
2023/10/09 14:12:10;;;;;;;19.20;3.40;;;22.80;68.70;;;;;;4987935;28;20070;-64
2023/10/09 14:14:48;;;;;;;15.00;3.67;;;22.80;68.50;;;;;;4988581;28;20054;-64
2023/10/09 14:17:18;;;;;;;14.38;3.38;;;22.80;68.00;;;;;;4988648;28;20063;-64
2023/10/09 14:19:47;;;;;;;10.25;3.20;;;22.80;68.40;;;;;;4988218;28;20041;-64
2023/10/09 14:22:15;;;;;;;12.40;3.42;;;22.80;68.30;;;;;;4988290;28;20034;-64
2023/10/09 14:24:45;;;;;;;12.60;3.40;;;22.80;68.10;;;;;;4986875;28;20586;-64
2023/10/09 14:27:19;;;;;;;13.25;3.33;;;22.80;68.00;;;;;;4987846;28;20398;-64
2023/10/09 14:29:45;;;;;;;12.00;2.95;;;22.80;68.00;;;;;;4986549;28;20035;-64
2023/10/09 14:32:14;;;;;;;17.17;3.33;;;22.90;68.00;;;;;;4987083;28;20057;-64
2023/10/09 14:34:49;;;;;;;12.15;3.05;;;22.90;68.00;;;;;;4986640;28;20524;-64
2023/10/09 14:37:15;;;;;;;14.00;3.05;;;22.90;67.70;;;;;;4986692;28;20046;-64
2023/10/09 14:39:41;;;;;;;15.07;3.30;;;22.90;67.50;;;;;;4987777;28;20037;-64
2023/10/09 14:42:10;;;;;;;24.35;4.32;;;22.90;67.40;;;;;;4988289;28;20117;-64
2023/10/09 14:44:40;;;;;;;13.38;3.40;;;22.90;67.40;;;;;;4983977;28;20030;-64
2023/10/09 14:47:09;;;;;;;16.60;3.15;;;22.80;67.10;;;;;;4987509;28;20050;-64
2023/10/09 14:49:43;;;;;;;12.55;3.40;;;22.80;66.70;;;;;;4987482;28;20040;-64
2023/10/09 14:52:16;;;;;;;15.30;3.35;;;22.80;66.90;;;;;;4987522;28;20036;-64
2023/10/09 14:54:42;;;;;;;15.85;3.33;;;22.80;67.00;;;;;;4986737;28;20050;-64
2023/10/09 14:57:11;;;;;;;11.93;2.65;;;22.80;67.00;;;;;;4987545;28;20042;-64
2023/10/09 14:59:37;;;;;;;11.13;3.03;;;22.80;67.00;;;;;;4987941;28;20034;-64
2023/10/09 15:02:05;;;;;;;9.75;3.05;;;22.80;67.20;;;;;;4987404;28;20041;-64
2023/10/09 15:04:31;;;;;;;14.90;3.00;;;22.80;67.40;;;;;;4986988;28;20041;-64
2023/10/09 15:06:57;;;;;;;7.97;3.13;;;22.80;67.40;;;;;;4987653;28;20089;-64
2023/10/09 15:09:23;;;;;;;9.30;3.28;;;22.80;67.40;;;;;;4988726;28;20038;-64
2023/10/09 15:11:49;;;;;;;11.00;2.80;;;22.80;67.50;;;;;;4985562;28;20145;-64
2023/10/09 15:14:18;;;;;;;8.68;2.92;;;22.80;67.30;;;;;;4987873;28;20045;-64
2023/10/09 15:16:44;;;;;;;12.73;3.35;;;22.80;67.30;;;;;;4987775;28;20038;-64